Time;durP1;ratioP1;P1;durP2;ratioP2;P2;SDS_P1;SDS_P2;PMS_P1;PMS_P2;Temp;Humidity;BMP_temperature;BMP_pressure;BME280_temperature;BME280_humidity;BME280_pressure;Samples;Min_cycle;Max_cycle;Signal;HPM_P1;HPM_P2
2022/05/03 00:02:06;;;;;;;9.18;3.05;;;20.00;99.90;;;;;;5032917;28;20056;-71
2022/05/03 00:04:49;;;;;;;9.25;2.88;;;20.00;99.90;;;;;;5035842;28;20041;-70
2022/05/03 00:07:31;;;;;;;9.00;2.55;;;19.80;99.90;;;;;;5034988;28;20366;-71
2022/05/03 00:10:06;;;;;;;8.70;2.45;;;19.90;99.90;;;;;;5027913;28;20017;-69
2022/05/03 00:12:41;;;;;;;7.13;2.20;;;20.00;99.90;;;;;;5029842;28;20030;-70
2022/05/03 00:15:09;;;;;;;4.88;1.88;;;20.00;99.90;;;;;;5015106;28;20671;-69
2022/05/03 00:17:38;;;;;;;6.47;1.67;;;19.70;99.90;;;;;;5035206;28;20124;-70
2022/05/03 00:20:06;;;;;;;6.13;1.63;;;19.60;99.90;;;;;;5032700;28;20494;-69
2022/05/03 00:22:35;;;;;;;7.10;1.70;;;19.80;99.90;;;;;;5032541;28;20026;-69
2022/05/03 00:25:03;;;;;;;11.38;2.33;;;19.90;99.90;;;;;;5033943;28;20017;-69
2022/05/03 00:27:30;;;;;;;8.18;2.00;;;20.30;99.90;;;;;;5032285;28;20523;-70
2022/05/03 00:29:59;;;;;;;7.50;1.95;;;20.70;99.90;;;;;;5038789;28;20059;-69
2022/05/03 00:32:27;;;;;;;7.18;2.10;;;21.10;99.90;;;;;;5035400;28;20112;-70
2022/05/03 00:34:56;;;;;;;6.70;1.30;;;21.00;99.90;;;;;;5034584;28;20767;-71
2022/05/03 00:37:24;;;;;;;5.10;1.85;;;21.10;99.90;;;;;;5031835;28;20041;-70
2022/05/03 00:39:51;;;;;;;9.85;1.80;;;21.20;99.90;;;;;;5034342;28;20030;-70
2022/05/03 00:42:29;;;;;;;7.22;1.40;;;21.40;99.90;;;;;;5018369;28;20386;-70
2022/05/03 00:45:27;;;;;;;10.93;1.65;;;21.70;99.90;;;;;;5031872;28;20030;-70
2022/05/03 00:48:03;;;;;;;10.77;1.75;;;21.80;99.90;;;;;;5034692;28;20398;-70
2022/05/03 00:50:36;;;;;;;4.63;1.23;;;21.40;99.90;;;;;;5037312;28;20036;-70
2022/05/03 00:53:04;;;;;;;6.72;1.05;;;21.80;99.90;;;;;;5049864;28;20424;-70
2022/05/03 00:55:52;;;;;;;5.60;1.10;;;21.50;99.90;;;;;;5035153;28;20087;-70
2022/05/03 00:58:50;;;;;;;5.43;1.13;;;21.20;99.90;;;;;;5013733;28;20076;-70
2022/05/03 01:01:47;;;;;;;5.07;1.20;;;21.70;99.90;;;;;;5042738;28;20020;-70
2022/05/03 01:04:44;;;;;;;3.35;1.10;;;22.30;99.90;;;;;;5033326;28;20038;-72
2022/05/03 01:07:34;;;;;;;5.40;1.90;;;22.60;99.90;;;;;;5032430;28;20071;-70
2022/05/03 01:10:22;;;;;;;5.50;1.20;;;22.30;99.90;;;;;;5030160;28;20112;-71
2022/05/03 01:13:02;;;;;;;6.25;1.00;;;22.00;99.90;;;;;;5027937;28;20041;-70
2022/05/03 01:15:37;;;;;;;9.02;1.60;;;22.10;99.90;;;;;;5033577;28;20021;-71
2022/05/03 01:18:20;;;;;;;9.25;3.33;;;22.30;99.90;;;;;;5034053;28;20109;-71
2022/05/03 01:21:14;;;;;;;6.38;1.75;;;22.10;99.90;;;;;;5047061;28;20130;-71
2022/05/03 01:24:03;;;;;;;4.40;1.45;;;22.40;99.90;;;;;;5040235;28;20017;-71
2022/05/03 01:26:39;;;;;;;3.95;0.70;;;22.30;99.90;;;;;;5041937;28;20378;-71
2022/05/03 01:29:15;;;;;;;5.22;1.48;;;22.50;99.90;;;;;;5027229;28;20039;-71
2022/05/03 01:31:43;;;;;;;7.45;1.52;;;22.90;99.90;;;;;;5031938;28;20036;-72
2022/05/03 01:34:13;;;;;;;8.50;1.10;;;23.20;99.90;;;;;;5031326;28;20033;-72
2022/05/03 01:36:55;;;;;;;4.93;0.73;;;22.90;99.90;;;;;;5033973;28;20133;-71
2022/05/03 01:39:57;;;;;;;3.78;0.90;;;22.20;99.90;;;;;;5033270;28;20030;-71
2022/05/03 01:42:29;;;;;;;8.07;1.15;;;21.70;99.90;;;;;;5033002;28;20082;-70
2022/05/03 01:45:07;;;;;;;5.32;1.48;;;22.20;99.90;;;;;;5031430;28;20030;-71
2022/05/03 01:47:59;;;;;;;3.38;0.77;;;22.50;99.90;;;;;;5030353;28;20029;-71
2022/05/03 01:50:47;;;;;;;3.58;0.80;;;22.10;99.90;;;;;;5013831;28;20521;-71
2022/05/03 01:53:31;;;;;;;2.65;0.70;;;22.50;99.90;;;;;;5064585;27;20435;-73
2022/05/03 01:56:14;;;;;;;3.80;1.27;;;22.90;99.90;;;;;;5039493;28;20525;-71
2022/05/03 01:59:03;;;;;;;3.67;0.75;;;22.80;99.90;;;;;;5030963;28;20022;-71
2022/05/03 02:01:53;;;;;;;2.45;0.73;;;23.40;99.90;;;;;;5044697;28;20025;-70
2022/05/03 02:04:43;;;;;;;3.38;0.50;;;23.20;99.90;;;;;;5043363;28;20029;-70
2022/05/03 02:07:25;;;;;;;1.23;0.30;;;22.80;99.90;;;;;;5031849;28;20026;-71
2022/05/03 02:10:12;;;;;;;2.75;0.43;;;23.50;99.90;;;;;;5045313;28;20030;-70
2022/05/03 02:12:45;;;;;;;3.50;0.50;;;23.50;99.90;;;;;;5044761;28;20037;-70
2022/05/03 02:15:17;;;;;;;3.22;0.82;;;23.80;99.90;;;;;;5039415;28;20442;-71
2022/05/03 02:17:54;;;;;;;3.65;0.60;;;24.60;99.90;;;;;;5037692;28;20029;-71
2022/05/03 02:20:35;;;;;;;4.07;0.75;;;25.10;99.90;;;;;;5037112;28;20037;-71
2022/05/03 02:23:35;;;;;;;6.47;0.77;;;25.10;99.90;;;;;;5049362;28;20389;-71
2022/05/03 02:26:39;;;;;;;3.95;0.40;;;25.00;99.90;;;;;;5030328;28;20029;-71
2022/05/03 02:29:19;;;;;;;5.57;0.73;;;24.90;99.90;;;;;;5036163;28;20481;-71
2022/05/03 02:31:54;;;;;;;4.35;0.60;;;25.00;99.90;;;;;;5048425;28;20055;-71
2022/05/03 02:34:49;;;;;;;7.88;0.93;;;25.70;99.90;;;;;;5048785;28;20044;-71
2022/05/03 02:37:20;;;;;;;3.90;0.95;;;25.50;99.90;;;;;;5043199;28;20043;-71
2022/05/03 02:40:11;;;;;;;5.13;1.00;;;25.70;99.90;;;;;;5044311;28;20029;-71
2022/05/03 02:42:39;;;;;;;4.95;0.90;;;24.90;99.90;;;;;;5047648;28;20355;-71
2022/05/03 02:45:08;;;;;;;2.53;0.52;;;24.50;99.90;;;;;;5034302;28;20033;-71
2022/05/03 02:48:02;;;;;;;4.57;0.73;;;24.50;99.90;;;;;;5045245;28;20029;-70
2022/05/03 02:50:39;;;;;;;1.50;0.45;;;24.80;99.90;;;;;;5062404;28;20040;-71
2022/05/03 02:53:24;;;;;;;1.40;0.30;;;24.70;99.90;;;;;;5048889;28;20044;-70
2022/05/03 02:56:03;;;;;;;;;;;24.70;99.90;;;;;;5045113;28;20033;-71
2022/05/03 02:58:48;;;;;;;5.43;0.60;;;25.20;99.90;;;;;;5039321;28;19921;-71
2022/05/03 03:01:56;;;;;;;3.83;0.70;;;25.80;99.90;;;;;;5029973;28;20056;-71
2022/05/03 03:05:09;;;;;;;3.58;0.82;;;25.80;99.90;;;;;;5031386;28;20045;-71
2022/05/03 03:07:57;;;;;;;6.35;0.80;;;26.00;99.90;;;;;;5016413;28;20084;-71
2022/05/03 03:10:41;;;;;;;3.00;0.38;;;25.80;99.90;;;;;;5032318;28;20025;-71
2022/05/03 03:13:18;;;;;;;3.42;0.50;;;25.80;99.90;;;;;;5034163;28;20041;-71
2022/05/03 03:15:46;;;;;;;10.70;1.42;;;25.40;99.90;;;;;;5016206;28;20355;-71
2022/05/03 03:18:18;;;;;;;5.07;0.98;;;24.60;99.90;;;;;;5034169;28;20497;-71
2022/05/03 03:20:55;;;;;;;4.15;0.73;;;24.50;99.90;;;;;;5031062;28;20028;-71
2022/05/03 03:23:30;;;;;;;5.93;0.65;;;24.00;99.90;;;;;;5034103;28;20023;-71
2022/05/03 03:25:59;;;;;;;2.90;0.52;;;24.40;99.90;;;;;;5016343;28;20093;-71
2022/05/03 03:28:30;;;;;;;8.77;1.00;;;24.40;99.90;;;;;;5015508;28;20040;-72
2022/05/03 03:31:02;;;;;;;4.85;0.80;;;24.10;99.90;;;;;;5015820;28;20083;-71
2022/05/03 03:33:34;;;;;;;6.63;0.70;;;23.70;99.90;;;;;;5025726;28;20597;-71
2022/05/03 03:36:06;;;;;;;2.45;0.68;;;23.90;99.90;;;;;;5025019;28;20021;-71
2022/05/03 03:38:40;;;;;;;4.18;0.70;;;24.30;99.90;;;;;;5031948;28;20413;-71
2022/05/03 03:41:11;;;;;;;2.67;0.47;;;24.70;99.90;;;;;;5019084;28;20032;-71
2022/05/03 03:43:40;;;;;;;5.80;0.60;;;24.30;99.90;;;;;;5032398;28;20022;-71
2022/05/03 03:46:08;;;;;;;7.63;0.70;;;23.60;99.90;;;;;;5030566;28;20033;-71
2022/05/03 03:48:36;;;;;;;4.13;0.93;;;23.40;99.90;;;;;;5030025;28;20041;-71
2022/05/03 03:51:04;;;;;;;6.80;0.98;;;23.00;99.90;;;;;;5019148;28;20022;-71
2022/05/03 03:53:33;;;;;;;6.55;1.73;;;22.90;99.90;;;;;;5029542;28;20067;-71
2022/05/03 03:56:01;;;;;;;6.40;0.85;;;22.60;99.90;;;;;;5025058;28;20022;-71
2022/05/03 03:58:29;;;;;;;3.95;0.98;;;22.60;99.90;;;;;;5015132;28;20030;-71
2022/05/03 04:00:57;;;;;;;5.63;0.70;;;22.40;99.90;;;;;;5018935;28;20017;-71
2022/05/03 04:03:27;;;;;;;7.68;0.85;;;22.30;99.90;;;;;;5028267;28;20083;-72
2022/05/03 04:05:54;;;;;;;4.47;0.98;;;22.20;99.90;;;;;;5028071;28;20057;-71
2022/05/03 04:08:22;;;;;;;6.22;1.10;;;22.30;99.90;;;;;;5024790;28;20599;-72
2022/05/03 04:10:49;;;;;;;3.45;0.90;;;22.30;99.90;;;;;;5023188;28;20084;-71
2022/05/03 04:13:17;;;;;;;4.03;0.55;;;22.40;99.90;;;;;;5024390;28;20038;-71
2022/05/03 04:15:45;;;;;;;5.70;0.85;;;22.40;99.90;;;;;;5020488;28;20514;-71
2022/05/03 04:18:12;;;;;;;7.05;0.88;;;22.10;99.90;;;;;;5021887;28;20038;-71
2022/05/03 04:20:39;;;;;;;6.70;0.77;;;22.10;99.90;;;;;;5019389;28;20036;-71
2022/05/03 04:23:09;;;;;;;11.43;2.03;;;22.20;99.90;;;;;;5021671;28;20018;-71
2022/05/03 04:25:36;;;;;;;8.18;1.42;;;22.20;99.90;;;;;;5018844;28;20474;-71
2022/05/03 04:28:04;;;;;;;6.68;0.85;;;22.20;99.90;;;;;;5026179;28;20493;-71
2022/05/03 04:30:31;;;;;;;16.45;2.40;;;22.10;99.90;;;;;;5020530;28;20030;-71
2022/05/03 04:32:58;;;;;;;6.68;1.17;;;22.00;99.90;;;;;;5018806;28;20025;-70
2022/05/03 04:35:26;;;;;;;9.70;1.10;;;22.10;99.90;;;;;;5018774;28;20038;-72
2022/05/03 04:37:53;;;;;;;8.90;1.08;;;22.00;99.90;;;;;;5020183;28;20482;-71
2022/05/03 04:40:20;;;;;;;4.57;0.77;;;22.00;99.90;;;;;;5019005;28;20112;-71
2022/05/03 04:42:47;;;;;;;8.25;0.80;;;21.90;99.90;;;;;;5017032;28;20467;-71
2022/05/03 04:45:15;;;;;;;9.85;1.25;;;21.80;99.90;;;;;;5018120;28;20389;-70
2022/05/03 04:47:42;;;;;;;9.23;1.42;;;21.80;99.90;;;;;;5019279;28;20068;-71
2022/05/03 04:50:11;;;;;;;10.15;1.05;;;21.80;99.90;;;;;;5022777;28;20031;-72
2022/05/03 04:52:39;;;;;;;6.95;1.15;;;21.70;99.90;;;;;;5018920;28;20053;-71
2022/05/03 04:55:07;;;;;;;7.30;0.70;;;21.60;99.90;;;;;;5020164;28;20096;-71
2022/05/03 04:57:34;;;;;;;8.63;0.63;;;21.60;99.90;;;;;;5017933;28;20389;-71
2022/05/03 05:00:01;;;;;;;6.53;1.05;;;21.50;99.90;;;;;;5016028;28;20021;-70
2022/05/03 05:02:29;;;;;;;6.05;1.00;;;21.40;99.90;;;;;;5018405;28;20033;-70
2022/05/03 05:04:56;;;;;;;5.85;1.33;;;21.50;99.90;;;;;;5022318;28;20473;-69
2022/05/03 05:07:23;;;;;;;5.00;0.65;;;21.40;99.90;;;;;;5023609;28;20057;-70
2022/05/03 05:12:36;;;;;;;6.78;1.17;;;21.40;99.90;;;;;;5018675;28;20126;-69
2022/05/03 05:15:03;;;;;;;5.63;1.25;;;21.30;99.90;;;;;;5018805;28;20030;-70
2022/05/03 05:17:34;;;;;;;4.55;0.98;;;21.20;99.90;;;;;;5026050;28;20029;-70
2022/05/03 05:20:01;;;;;;;5.10;0.77;;;21.20;99.90;;;;;;5015089;28;20049;-70
2022/05/03 05:22:28;;;;;;;7.70;0.82;;;21.20;99.90;;;;;;5015429;28;20391;-69
2022/05/03 05:24:56;;;;;;;7.90;0.40;;;21.10;99.90;;;;;;5017960;28;20021;-69
2022/05/03 05:27:23;;;;;;;4.45;0.50;;;21.00;99.90;;;;;;5016048;28;20060;-69
2022/05/03 05:29:50;;;;;;;4.78;0.75;;;21.10;99.90;;;;;;5026641;28;20136;-69
2022/05/03 05:32:17;;;;;;;5.22;0.45;;;21.10;99.90;;;;;;5021745;28;20040;-69
2022/05/03 05:34:45;;;;;;;4.10;0.50;;;21.10;99.90;;;;;;5016896;28;20049;-69
2022/05/03 05:37:13;;;;;;;8.13;0.98;;;21.10;99.90;;;;;;5022850;28;20029;-69
2022/05/03 05:39:40;;;;;;;4.25;0.82;;;21.10;99.90;;;;;;5020573;28;20029;-69
2022/05/03 05:42:08;;;;;;;8.48;0.80;;;21.10;99.90;;;;;;5013855;28;20033;-69
2022/05/03 05:44:35;;;;;;;5.68;0.60;;;21.10;99.90;;;;;;5021642;28;20052;-69
2022/05/03 05:47:02;;;;;;;2.83;0.60;;;21.00;99.90;;;;;;5023395;28;20061;-69
2022/05/03 05:49:30;;;;;;;6.47;0.60;;;21.00;99.90;;;;;;5025237;28;20439;-69
2022/05/03 05:54:44;;;;;;;7.40;0.75;;;21.00;99.90;;;;;;4999527;28;20553;-69
2022/05/03 05:57:12;;;;;;;4.50;0.65;;;21.00;99.90;;;;;;5018493;28;20385;-71
2022/05/03 05:59:39;;;;;;;5.63;0.50;;;21.00;99.90;;;;;;5021140;28;20470;-70
2022/05/03 06:02:07;;;;;;;5.13;0.60;;;20.90;99.90;;;;;;5017547;28;20034;-70
2022/05/03 06:04:34;;;;;;;4.85;0.88;;;20.90;99.90;;;;;;5021315;28;20029;-71
2022/05/03 06:07:01;;;;;;;7.07;1.13;;;20.90;99.90;;;;;;5025177;28;20087;-70
2022/05/03 06:09:29;;;;;;;3.30;0.43;;;20.90;99.90;;;;;;5025039;28;20493;-69
2022/05/03 06:11:56;;;;;;;15.68;1.40;;;20.90;99.90;;;;;;5031624;28;20400;-69
2022/05/03 06:14:23;;;;;;;5.22;0.88;;;20.90;99.90;;;;;;5022185;28;20029;-70
2022/05/03 06:16:52;;;;;;;5.90;0.55;;;20.80;99.90;;;;;;5022323;28;20025;-71
2022/05/03 06:19:19;;;;;;;7.15;1.08;;;20.80;99.90;;;;;;5022992;28;20029;-68
2022/05/03 06:21:48;;;;;;;5.10;0.73;;;20.80;99.90;;;;;;5015413;28;20033;-70
2022/05/03 06:24:16;;;;;;;6.45;0.80;;;20.80;99.90;;;;;;5022749;28;20036;-70
2022/05/03 06:26:44;;;;;;;6.38;0.95;;;20.70;99.90;;;;;;5026075;28;20673;-70
2022/05/03 06:29:12;;;;;;;7.22;0.77;;;20.70;99.90;;;;;;5020100;28;20033;-70
2022/05/03 06:31:42;;;;;;;4.35;0.82;;;20.70;99.90;;;;;;5020582;28;20034;-70
2022/05/03 06:34:10;;;;;;;3.40;0.60;;;20.60;99.90;;;;;;5019688;28;20052;-70
2022/05/03 06:36:38;;;;;;;3.75;0.70;;;20.40;99.90;;;;;;5028138;28;20057;-70
2022/05/03 06:39:06;;;;;;;4.53;0.70;;;20.40;99.90;;;;;;5014725;28;20044;-70
2022/05/03 06:41:33;;;;;;;7.57;0.85;;;20.30;99.90;;;;;;5020346;28;20539;-71
2022/05/03 06:44:01;;;;;;;5.78;0.50;;;20.30;99.90;;;;;;5021536;28;20056;-70
2022/05/03 06:46:31;;;;;;;4.80;0.93;;;20.30;99.90;;;;;;5023566;28;20437;-70
2022/05/03 06:48:58;;;;;;;8.35;0.65;;;20.20;99.90;;;;;;5019128;28;20087;-70
2022/05/03 06:51:26;;;;;;;5.15;0.73;;;20.20;99.90;;;;;;5023655;28;20041;-70
2022/05/03 06:53:54;;;;;;;4.75;0.85;;;20.10;99.90;;;;;;5021513;28;20109;-70
2022/05/03 06:56:21;;;;;;;6.53;1.10;;;20.10;99.90;;;;;;5023015;28;20028;-70
2022/05/03 06:58:49;;;;;;;3.83;1.20;;;20.10;99.90;;;;;;5027388;28;20030;-70
2022/05/03 07:01:16;;;;;;;4.97;1.15;;;20.00;99.90;;;;;;5027439;28;20029;-70
2022/05/03 07:03:44;;;;;;;7.40;1.20;;;20.00;99.90;;;;;;5017684;28;20040;-70
2022/05/03 07:06:11;;;;;;;6.88;1.50;;;20.00;99.90;;;;;;5031211;28;20156;-70
2022/05/03 07:08:39;;;;;;;8.45;0.88;;;19.90;99.90;;;;;;5023090;28;20394;-70
2022/05/03 07:11:06;;;;;;;6.75;1.15;;;19.80;99.90;;;;;;5023630;28;20014;-70
2022/05/03 07:13:33;;;;;;;6.47;0.75;;;19.90;99.90;;;;;;5027598;28;20045;-70
2022/05/03 07:16:01;;;;;;;4.32;1.33;;;19.80;99.90;;;;;;5024189;28;20033;-70
2022/05/03 07:23:58;;;;;;;5.43;1.02;;;19.70;99.90;;;;;;5019110;28;20037;-70
2022/05/03 07:26:25;;;;;;;5.90;0.93;;;19.60;99.90;;;;;;5015378;28;20112;-70
2022/05/03 07:28:53;;;;;;;5.82;1.02;;;19.60;99.90;;;;;;5022493;28;20080;-71
2022/05/03 07:31:21;;;;;;;6.07;0.60;;;19.70;99.90;;;;;;5020301;28;20063;-70
2022/05/03 07:33:49;;;;;;;7.80;1.10;;;19.70;99.90;;;;;;5026517;28;20563;-70
2022/05/03 07:36:19;;;;;;;3.65;0.90;;;19.60;99.90;;;;;;5018089;28;20022;-70
2022/05/03 07:38:47;;;;;;;8.57;1.48;;;19.60;99.90;;;;;;5016136;28;20474;-70
2022/05/03 07:41:16;;;;;;;8.32;1.73;;;19.50;99.90;;;;;;5027195;28;20041;-70
2022/05/03 07:43:43;;;;;;;12.43;3.92;;;19.50;99.90;;;;;;5032646;28;20032;-70
2022/05/03 07:46:12;;;;;;;8.88;1.67;;;19.50;99.90;;;;;;5034270;28;20025;-70
2022/05/03 07:48:39;;;;;;;4.22;1.10;;;19.50;99.90;;;;;;5016814;28;20034;-70
2022/05/03 07:51:07;;;;;;;6.38;0.90;;;19.50;99.90;;;;;;5015474;28;20088;-70
2022/05/03 07:53:35;;;;;;;6.55;0.98;;;19.40;99.90;;;;;;5015346;28;20116;-70
2022/05/03 07:56:02;;;;;;;7.93;0.90;;;19.40;99.90;;;;;;5020111;28;20033;-70
2022/05/03 07:58:29;;;;;;;12.65;4.95;;;19.40;99.90;;;;;;5021845;28;20033;-69
2022/05/03 08:00:57;;;;;;;10.52;4.18;;;19.40;99.90;;;;;;5027285;28;20033;-70
2022/05/03 08:03:24;;;;;;;6.18;1.27;;;19.50;99.90;;;;;;5021836;28;20097;-69
2022/05/03 08:05:52;;;;;;;4.57;1.25;;;19.40;99.90;;;;;;5026616;28;20178;-70
2022/05/03 08:08:19;;;;;;;5.88;1.15;;;19.40;99.90;;;;;;5020999;28;20026;-70
2022/05/03 08:10:47;;;;;;;7.97;1.70;;;19.30;99.90;;;;;;5020743;28;20485;-70
2022/05/03 08:13:14;;;;;;;4.78;1.30;;;19.30;99.90;;;;;;5018530;28;20026;-70
2022/05/03 08:15:42;;;;;;;7.45;1.50;;;19.30;99.90;;;;;;5028650;28;20026;-70
2022/05/03 08:18:09;;;;;;;3.70;1.00;;;19.30;99.90;;;;;;5028225;28;20029;-70
2022/05/03 08:20:36;;;;;;;8.57;1.92;;;19.20;99.90;;;;;;5022223;28;20053;-70
2022/05/03 08:23:04;;;;;;;4.93;1.48;;;19.20;99.90;;;;;;5034466;28;20111;-70
2022/05/03 08:25:32;;;;;;;6.45;1.75;;;19.20;99.90;;;;;;5029074;28;20390;-71
2022/05/03 08:27:59;;;;;;;5.05;2.15;;;19.20;99.90;;;;;;5022181;28;20090;-70
2022/05/03 08:30:27;;;;;;;6.65;1.63;;;19.20;99.90;;;;;;5027065;28;20026;-71
2022/05/03 08:32:54;;;;;;;11.60;1.67;;;19.20;99.90;;;;;;5024120;28;20117;-69
2022/05/03 08:35:24;;;;;;;12.55;1.95;;;19.10;99.90;;;;;;5021970;28;20445;-70
2022/05/03 08:43:24;;;;;;;3.78;0.60;;;19.10;99.90;;;;;;5018195;28;20486;-70
2022/05/03 08:45:52;;;;;;;3.85;0.95;;;19.10;99.90;;;;;;5027490;28;20025;-70
2022/05/03 08:48:24;;;;;;;4.97;0.93;;;19.10;99.90;;;;;;5027620;28;20110;-70
2022/05/03 08:50:52;;;;;;;7.65;1.45;;;19.00;99.90;;;;;;5032445;28;20031;-70
2022/05/03 08:53:21;;;;;;;8.07;1.50;;;19.00;99.90;;;;;;5031771;28;20048;-69
2022/05/03 08:55:50;;;;;;;5.25;1.70;;;19.00;99.90;;;;;;5030391;28;20025;-70
2022/05/03 08:58:19;;;;;;;6.50;1.48;;;19.00;99.90;;;;;;5032551;28;20028;-69
2022/05/03 09:00:47;;;;;;;6.00;1.27;;;19.00;99.90;;;;;;5021094;28;20026;-70
2022/05/03 09:03:15;;;;;;;7.00;1.70;;;19.00;99.90;;;;;;5029202;28;20401;-69
2022/05/03 09:05:42;;;;;;;6.10;1.05;;;19.00;99.90;;;;;;5013878;28;20045;-70
2022/05/03 09:08:11;;;;;;;5.85;1.60;;;19.00;99.90;;;;;;5021301;28;20018;-70
2022/05/03 09:10:39;;;;;;;7.63;1.10;;;18.90;99.90;;;;;;5024352;28;20438;-70
2022/05/03 09:13:22;;;;;;;5.95;1.33;;;18.90;99.90;;;;;;5030312;28;20033;-69
2022/05/03 09:15:57;;;;;;;6.80;2.05;;;18.90;99.90;;;;;;5022058;28;20021;-69
2022/05/03 09:18:31;;;;;;;7.97;2.70;;;18.90;99.90;;;;;;5027501;28;20111;-69
2022/05/03 09:23:51;;;;;;;8.05;1.40;;;18.90;99.90;;;;;;5016067;28;20048;-69
2022/05/03 09:26:30;;;;;;;4.43;1.23;;;18.90;99.90;;;;;;5027954;28;20018;-68
2022/05/03 09:29:05;;;;;;;7.53;1.65;;;18.80;99.90;;;;;;5016022;28;20037;-69
2022/05/03 09:31:37;;;;;;;7.60;1.13;;;18.80;99.90;;;;;;5030321;28;20370;-69
2022/05/03 09:34:26;;;;;;;5.95;1.45;;;18.70;99.90;;;;;;5026199;28;20035;-69
2022/05/03 09:37:09;;;;;;;6.22;1.60;;;18.70;99.90;;;;;;5015358;28;20509;-68
2022/05/03 09:39:48;;;;;;;8.98;1.40;;;18.70;99.90;;;;;;5022346;28;20107;-69
2022/05/03 09:42:21;;;;;;;8.73;2.15;;;18.70;99.90;;;;;;5012872;28;20132;-69
2022/05/03 09:45:02;;;;;;;8.90;1.40;;;18.70;99.90;;;;;;5013651;28;20478;-69
2022/05/03 09:47:35;;;;;;;5.95;1.02;;;18.70;99.90;;;;;;5023058;28;20029;-69
2022/05/03 09:50:03;;;;;;;5.18;1.50;;;18.70;99.90;;;;;;5023163;28;20084;-69
2022/05/03 09:52:31;;;;;;;4.32;1.70;;;18.60;99.90;;;;;;5022023;28;20498;-69
2022/05/03 09:55:07;;;;;;;3.72;1.25;;;18.60;99.90;;;;;;5025712;28;20108;-69
2022/05/03 09:57:36;;;;;;;7.63;1.70;;;18.50;99.90;;;;;;5015362;28;20037;-68
2022/05/03 10:00:06;;;;;;;6.43;1.38;;;18.50;99.90;;;;;;5020384;28;20076;-68
2022/05/03 10:02:35;;;;;;;3.97;1.30;;;18.40;99.90;;;;;;5028248;28;20021;-68
2022/05/03 10:05:02;;;;;;;8.75;1.90;;;18.40;99.90;;;;;;5029740;28;20025;-68
2022/05/03 10:07:30;;;;;;;4.75;1.38;;;18.40;99.90;;;;;;5023451;28;20100;-68
2022/05/03 10:09:57;;;;;;;9.15;2.42;;;18.40;99.90;;;;;;5037355;28;20033;-68
2022/05/03 10:12:24;;;;;;;6.85;1.75;;;18.30;99.90;;;;;;5016588;28;20034;-68
2022/05/03 10:14:52;;;;;;;10.48;2.40;;;18.30;99.90;;;;;;5014503;28;20026;-68
2022/05/03 10:20:46;;;;;;;9.70;2.10;;;18.20;99.90;;;;;;5032590;28;20068;-68
2022/05/03 10:23:35;;;;;;;5.45;1.48;;;18.20;99.90;;;;;;5029365;28;20037;-68
2022/05/03 10:26:10;;;;;;;8.02;1.35;;;18.20;99.90;;;;;;5032380;28;20026;-68
2022/05/03 10:29:05;;;;;;;3.78;0.90;;;18.20;99.90;;;;;;5021475;28;20112;-68
2022/05/03 10:31:54;;;;;;;7.75;1.33;;;18.30;99.90;;;;;;5035019;28;20072;-68
2022/05/03 10:34:53;;;;;;;8.25;1.85;;;18.30;99.90;;;;;;5019882;28;20216;-69
2022/05/03 10:37:33;;;;;;;4.82;1.75;;;18.20;99.90;;;;;;5029634;28;20060;-68
2022/05/03 10:40:13;;;;;;;8.27;1.33;;;18.20;99.90;;;;;;5033692;28;20029;-68
2022/05/03 10:42:41;;;;;;;5.75;1.48;;;18.20;99.90;;;;;;5028262;28;20030;-68
2022/05/03 10:45:10;;;;;;;11.25;2.05;;;18.20;99.90;;;;;;5030787;28;20021;-68
2022/05/03 10:47:54;;;;;;;7.40;1.40;;;18.20;99.90;;;;;;5019321;28;20386;-68
2022/05/03 10:50:26;;;;;;;7.75;2.03;;;18.10;99.90;;;;;;5020519;28;20716;-68
2022/05/03 10:52:59;;;;;;;7.05;2.00;;;18.20;99.90;;;;;;5024258;28;20070;-68
2022/05/03 10:55:49;;;;;;;6.50;1.80;;;18.10;99.90;;;;;;5032179;28;20112;-68
2022/05/03 10:58:27;;;;;;;7.28;0.93;;;18.10;99.90;;;;;;5025035;28;20037;-68
2022/05/03 11:01:11;;;;;;;7.05;1.55;;;18.20;99.90;;;;;;5035129;28;20025;-69
2022/05/03 11:04:00;;;;;;;6.00;1.40;;;18.20;99.90;;;;;;5019814;28;20076;-68
2022/05/03 11:06:27;;;;;;;8.75;1.23;;;18.20;99.90;;;;;;5033772;28;20108;-68
2022/05/03 11:11:43;;;;;;;7.22;1.17;;;18.20;99.90;;;;;;5018519;28;20144;-68
2022/05/03 11:14:22;;;;;;;6.03;1.23;;;18.20;99.90;;;;;;5015673;28;20030;-68
2022/05/03 11:17:08;;;;;;;4.13;1.15;;;18.20;99.90;;;;;;5015881;28;20117;-68
2022/05/03 11:19:40;;;;;;;5.50;1.35;;;18.20;99.90;;;;;;5016324;28;20061;-69
2022/05/03 11:22:15;;;;;;;6.15;1.45;;;18.20;99.90;;;;;;5015766;28;20034;-68
2022/05/03 11:24:45;;;;;;;3.97;1.00;;;18.10;99.90;;;;;;5019855;28;20040;-68
2022/05/03 11:27:14;;;;;;;6.40;1.20;;;18.10;99.90;;;;;;5032130;28;20029;-68
2022/05/03 11:29:47;;;;;;;8.05;2.20;;;18.00;99.90;;;;;;5032985;28;20025;-68
2022/05/03 11:32:16;;;;;;;7.38;1.92;;;18.00;99.90;;;;;;5030625;28;20038;-68
2022/05/03 11:34:44;;;;;;;5.53;1.77;;;18.00;99.90;;;;;;5023319;28;20026;-68
2022/05/03 11:37:11;;;;;;;4.18;1.20;;;17.90;99.90;;;;;;5027872;28;20021;-67
2022/05/03 11:39:40;;;;;;;9.73;1.25;;;17.90;99.90;;;;;;5035154;28;20022;-68
2022/05/03 11:42:10;;;;;;;7.18;1.58;;;17.90;99.90;;;;;;5033310;28;20014;-68
2022/05/03 11:44:47;;;;;;;4.15;1.30;;;17.80;99.90;;;;;;5023158;28;20026;-69
2022/05/03 11:47:15;;;;;;;6.35;2.00;;;17.80;99.90;;;;;;5027933;28;20048;-69
2022/05/03 11:49:44;;;;;;;6.43;1.60;;;17.80;99.90;;;;;;5022844;28;20030;-69
2022/05/03 11:57:42;;;;;;;3.80;1.08;;;17.70;99.90;;;;;;5023462;28;20497;-68
2022/05/03 12:00:13;;;;;;;4.93;1.13;;;17.70;99.90;;;;;;5020364;28;20022;-69
2022/05/03 12:02:45;;;;;;;6.35;1.70;;;17.70;99.90;;;;;;5014907;28;20033;-69
2022/05/03 12:05:18;;;;;;;6.80;1.80;;;17.70;99.90;;;;;;5027875;28;20074;-69
2022/05/03 12:07:55;;;;;;;7.50;1.40;;;17.60;99.90;;;;;;5027629;28;20026;-69
2022/05/03 12:10:29;;;;;;;5.22;1.35;;;17.60;99.90;;;;;;5019388;28;20447;-69
2022/05/03 12:13:06;;;;;;;5.72;1.10;;;17.50;99.90;;;;;;5020783;28;20032;-70
2022/05/03 12:15:45;;;;;;;6.70;1.33;;;17.50;99.90;;;;;;5018871;28;20018;-70
2022/05/03 12:18:18;;;;;;;6.05;1.38;;;17.50;99.90;;;;;;5021268;28;20503;-69
2022/05/03 12:20:54;;;;;;;9.32;1.40;;;17.50;99.90;;;;;;5023593;28;20052;-67
2022/05/03 12:23:23;;;;;;;3.90;1.25;;;17.40;99.90;;;;;;5021536;28;20025;-68
2022/05/03 12:25:56;;;;;;;8.30;1.70;;;17.50;99.90;;;;;;5021587;28;20033;-68
2022/05/03 12:28:43;;;;;;;6.78;1.33;;;17.40;99.90;;;;;;5022718;28;20079;-69
2022/05/03 12:31:12;;;;;;;5.15;1.08;;;17.40;99.90;;;;;;5014074;28;20091;-69
2022/05/03 12:33:46;;;;;;;5.18;1.15;;;17.40;99.90;;;;;;5030337;28;20041;-68
2022/05/03 12:36:35;;;;;;;5.40;1.08;;;17.40;99.90;;;;;;5031072;28;20485;-71
2022/05/03 12:39:10;;;;;;;4.75;0.90;;;17.40;99.90;;;;;;5028375;28;20025;-69
2022/05/03 12:41:38;;;;;;;5.15;0.95;;;17.40;99.90;;;;;;5027355;28;20034;-69
2022/05/03 12:44:15;;;;;;;5.85;1.05;;;17.50;99.90;;;;;;5023272;28;20474;-68
2022/05/03 12:46:43;;;;;;;5.25;1.38;;;17.50;99.90;;;;;;5013684;28;20022;-69
2022/05/03 12:49:13;;;;;;;2.78;1.30;;;17.50;99.90;;;;;;5026000;28;20068;-69
2022/05/03 12:51:48;;;;;;;5.05;1.10;;;17.50;99.90;;;;;;5026046;28;20452;-69
2022/05/03 12:54:15;;;;;;;8.13;1.70;;;17.50;99.90;;;;;;5030647;28;20386;-69
2022/05/03 12:59:30;;;;;;;7.00;1.10;;;17.50;99.90;;;;;;5030726;28;20500;-68
2022/05/03 13:01:57;;;;;;;6.72;1.30;;;17.50;99.90;;;;;;5031011;28;20034;-69
2022/05/03 13:04:29;;;;;;;3.58;0.90;;;17.50;99.90;;;;;;5032396;28;20026;-69
2022/05/03 13:07:00;;;;;;;8.10;1.42;;;17.40;99.90;;;;;;5014771;28;20014;-69
2022/05/03 13:09:30;;;;;;;6.05;1.30;;;17.40;99.90;;;;;;5022760;28;20029;-68
2022/05/03 13:11:58;;;;;;;8.20;1.25;;;17.40;99.90;;;;;;5027884;28;20123;-69
2022/05/03 13:14:26;;;;;;;7.38;1.33;;;17.30;99.90;;;;;;5032961;28;20024;-68
2022/05/03 13:16:54;;;;;;;6.88;1.08;;;17.30;99.90;;;;;;5024391;28;20026;-69
2022/05/03 13:19:21;;;;;;;3.03;0.80;;;17.20;99.90;;;;;;5019072;28;20033;-69
2022/05/03 13:21:49;;;;;;;6.18;1.45;;;17.20;99.90;;;;;;5022981;28;20033;-69
2022/05/03 13:24:17;;;;;;;5.72;1.15;;;17.10;99.90;;;;;;5025172;28;20048;-69
2022/05/03 13:26:44;;;;;;;5.20;1.15;;;17.00;99.90;;;;;;5030199;28;20112;-69
2022/05/03 13:29:15;;;;;;;7.82;0.88;;;17.10;99.90;;;;;;5026073;28;20029;-69
2022/05/03 13:31:43;;;;;;;4.50;0.95;;;17.10;99.90;;;;;;5013899;28;20092;-69
2022/05/03 13:34:12;;;;;;;5.38;1.00;;;17.10;99.90;;;;;;5025736;28;20029;-68
2022/05/03 13:42:11;;;;;;;9.82;1.35;;;17.10;99.90;;;;;;5023790;28;20036;-69
2022/05/03 13:44:40;;;;;;;6.28;1.75;;;17.10;99.90;;;;;;5029442;28;20029;-69
2022/05/03 13:47:08;;;;;;;4.63;1.25;;;17.10;99.90;;;;;;5032252;28;20454;-68
2022/05/03 13:49:37;;;;;;;7.32;1.80;;;17.00;99.90;;;;;;5031695;28;20450;-69
2022/05/03 13:52:05;;;;;;;7.75;1.10;;;16.90;99.90;;;;;;5016757;28;20545;-69
2022/05/03 13:54:33;;;;;;;5.68;1.30;;;17.00;99.90;;;;;;5013413;28;20021;-68